sensor_id;sensor_type;location;lat;lon;timestamp;pressure;altitude;pressure_sealevel;temperature;humidity
16777;BME280;8505;49.456;8.164;2022-10-16T00:01:33;99464.44;;;16.45;87.29
16777;BME280;8505;49.456;8.164;2022-10-16T00:04:02;99460.31;;;16.42;87.53
16777;BME280;8505;49.456;8.164;2022-10-16T00:06:31;99471.13;;;16.61;87.11
16777;BME280;8505;49.456;8.164;2022-10-16T00:08:59;99479.59;;;16.51;87.19
16777;BME280;8505;49.456;8.164;2022-10-16T00:11:28;99487.66;;;16.44;87.23
16777;BME280;8505;49.456;8.164;2022-10-16T00:13:58;99498.84;;;16.35;88.06
16777;BME280;8505;49.456;8.164;2022-10-16T00:16:27;99493.91;;;16.32;88.07
16777;BME280;8505;49.456;8.164;2022-10-16T00:18:55;99492.44;;;16.36;88.05
16777;BME280;8505;49.456;8.164;2022-10-16T00:21:26;99488.19;;;16.28;88.62
16777;BME280;8505;49.456;8.164;2022-10-16T00:23:56;99490.63;;;16.30;88.23
16777;BME280;8505;49.456;8.164;2022-10-16T00:26:27;99497.06;;;16.22;88.59
16777;BME280;8505;49.456;8.164;2022-10-16T00:28:55;99489.59;;;16.31;88.57
16777;BME280;8505;49.456;8.164;2022-10-16T00:31:23;99492.22;;;16.37;88.03
16777;BME280;8505;49.456;8.164;2022-10-16T00:33:51;99492.63;;;16.41;88.56
16777;BME280;8505;49.456;8.164;2022-10-16T00:36:21;99504.81;;;16.30;88.68
16777;BME280;8505;49.456;8.164;2022-10-16T00:38:51;99513.81;;;16.36;88.20
16777;BME280;8505;49.456;8.164;2022-10-16T00:41:22;99514.63;;;16.36;87.77
16777;BME280;8505;49.456;8.164;2022-10-16T00:43:51;99514.63;;;16.36;88.16
16777;BME280;8505;49.456;8.164;2022-10-16T00:46:21;99515.81;;;16.47;87.79
16777;BME280;8505;49.456;8.164;2022-10-16T00:48:52;99504.53;;;16.45;87.27
16777;BME280;8505;49.456;8.164;2022-10-16T00:51:27;99507.00;;;16.46;88.38
16777;BME280;8505;49.456;8.164;2022-10-16T00:53:57;99514.53;;;16.56;87.41
16777;BME280;8505;49.456;8.164;2022-10-16T00:56:25;99514.78;;;16.48;88.29
16777;BME280;8505;49.456;8.164;2022-10-16T00:58:53;99511.22;;;16.61;87.62
16777;BME280;8505;49.456;8.164;2022-10-16T01:01:21;99514.09;;;16.66;87.30
16777;BME280;8505;49.456;8.164;2022-10-16T01:03:49;99508.56;;;16.23;88.21
16777;BME280;8505;49.456;8.164;2022-10-16T01:06:22;99508.56;;;16.23;89.92
16777;BME280;8505;49.456;8.164;2022-10-16T01:09:09;99505.38;;;16.39;88.76
16777;BME280;8505;49.456;8.164;2022-10-16T01:11:44;99509.28;;;16.36;87.83
16777;BME280;8505;49.456;8.164;2022-10-16T01:14:26;99507.97;;;16.52;88.02
16777;BME280;8505;49.456;8.164;2022-10-16T01:16:59;99510.63;;;16.21;88.34
16777;BME280;8505;49.456;8.164;2022-10-16T01:19:54;99513.28;;;16.21;89.78
16777;BME280;8505;49.456;8.164;2022-10-16T01:22:35;99519.75;;;16.44;88.00
16777;BME280;8505;49.456;8.164;2022-10-16T01:25:11;99522.69;;;16.30;88.18
16777;BME280;8505;49.456;8.164;2022-10-16T01:27:42;99534.88;;;16.57;87.53
16777;BME280;8505;49.456;8.164;2022-10-16T01:30:17;99538.38;;;16.64;87.35
16777;BME280;8505;49.456;8.164;2022-10-16T01:32:50;99539.31;;;16.38;88.77
16777;BME280;8505;49.456;8.164;2022-10-16T01:35:25;99539.78;;;16.29;89.76
16777;BME280;8505;49.456;8.164;2022-10-16T01:37:58;99531.25;;;16.00;89.98
16777;BME280;8505;49.456;8.164;2022-10-16T01:40:30;99524.16;;;16.26;90.35
16777;BME280;8505;49.456;8.164;2022-10-16T01:43:05;99537.16;;;16.60;88.11
16777;BME280;8505;49.456;8.164;2022-10-16T01:45:34;99538.06;;;16.41;89.48
16777;BME280;8505;49.456;8.164;2022-10-16T01:48:04;99530.16;;;16.21;89.18
16777;BME280;8505;49.456;8.164;2022-10-16T01:50:37;99525.34;;;16.30;89.64
16777;BME280;8505;49.456;8.164;2022-10-16T01:53:09;99523.47;;;16.37;89.84
16777;BME280;8505;49.456;8.164;2022-10-16T01:55:43;99517.81;;;16.58;88.49
16777;BME280;8505;49.456;8.164;2022-10-16T01:58:14;99536.34;;;16.53;88.03
16777;BME280;8505;49.456;8.164;2022-10-16T02:00:43;99533.25;;;16.56;88.57
16777;BME280;8505;49.456;8.164;2022-10-16T02:03:13;99532.56;;;16.67;88.06
16777;BME280;8505;49.456;8.164;2022-10-16T02:05:45;99524.13;;;17.02;86.32
16777;BME280;8505;49.456;8.164;2022-10-16T02:08:13;99531.25;;;17.08;85.58
16777;BME280;8505;49.456;8.164;2022-10-16T02:10:41;99528.13;;;17.11;85.45
16777;BME280;8505;49.456;8.164;2022-10-16T02:13:13;99527.97;;;16.81;86.72
16777;BME280;8505;49.456;8.164;2022-10-16T02:15:44;99524.13;;;17.02;86.18
16777;BME280;8505;49.456;8.164;2022-10-16T02:18:12;99528.09;;;16.92;85.58
16777;BME280;8505;49.456;8.164;2022-10-16T02:20:46;99532.56;;;16.67;87.41
16777;BME280;8505;49.456;8.164;2022-10-16T02:23:22;99534.47;;;16.91;85.98
16777;BME280;8505;49.456;8.164;2022-10-16T02:25:53;99537.31;;;16.96;85.63
16777;BME280;8505;49.456;8.164;2022-10-16T02:28:25;99536.41;;;17.09;85.18
16777;BME280;8505;49.456;8.164;2022-10-16T02:30:57;99535.63;;;17.02;85.01
16777;BME280;8505;49.456;8.164;2022-10-16T02:33:27;99531.47;;;16.81;86.25
16777;BME280;8505;49.456;8.164;2022-10-16T02:35:57;99530.41;;;16.51;87.69
16777;BME280;8505;49.456;8.164;2022-10-16T02:38:25;99526.19;;;16.99;86.17
16777;BME280;8505;49.456;8.164;2022-10-16T02:40:54;99528.59;;;17.08;85.54
16777;BME280;8505;49.456;8.164;2022-10-16T02:43:24;99542.13;;;17.13;85.24
16777;BME280;8505;49.456;8.164;2022-10-16T02:45:52;99544.59;;;16.89;85.97
16777;BME280;8505;49.456;8.164;2022-10-16T02:48:19;99543.63;;;16.77;87.11
16777;BME280;8505;49.456;8.164;2022-10-16T02:50:47;99544.00;;;16.81;87.05
16777;BME280;8505;49.456;8.164;2022-10-16T02:53:14;99544.09;;;16.68;87.51
16777;BME280;8505;49.456;8.164;2022-10-16T02:55:42;99538.75;;;16.68;87.90
16777;BME280;8505;49.456;8.164;2022-10-16T02:58:10;99539.19;;;16.58;88.26
16777;BME280;8505;49.456;8.164;2022-10-16T03:00:39;99536.59;;;16.45;88.37
16777;BME280;8505;49.456;8.164;2022-10-16T03:03:06;99538.28;;;16.39;88.83
16777;BME280;8505;49.456;8.164;2022-10-16T03:05:34;99533.16;;;16.31;89.12
16777;BME280;8505;49.456;8.164;2022-10-16T03:08:02;99534.66;;;16.21;89.37
16777;BME280;8505;49.456;8.164;2022-10-16T03:10:30;99541.47;;;16.16;89.90
16777;BME280;8505;49.456;8.164;2022-10-16T03:12:58;99541.28;;;16.05;90.45
16777;BME280;8505;49.456;8.164;2022-10-16T03:15:25;99545.44;;;16.01;90.60
16777;BME280;8505;49.456;8.164;2022-10-16T03:17:57;99552.44;;;15.95;90.81
16777;BME280;8505;49.456;8.164;2022-10-16T03:20:24;99551.84;;;15.87;91.18
16777;BME280;8505;49.456;8.164;2022-10-16T03:22:52;99537.91;;;15.85;91.57
16777;BME280;8505;49.456;8.164;2022-10-16T03:25:20;99532.94;;;15.88;91.65
16777;BME280;8505;49.456;8.164;2022-10-16T03:27:48;99542.19;;;15.92;91.38
16777;BME280;8505;49.456;8.164;2022-10-16T03:30:15;99544.25;;;15.90;91.27
16777;BME280;8505;49.456;8.164;2022-10-16T03:32:43;99547.56;;;15.86;91.35
16777;BME280;8505;49.456;8.164;2022-10-16T03:35:12;99549.16;;;15.93;91.22
16777;BME280;8505;49.456;8.164;2022-10-16T03:37:40;99556.56;;;15.91;90.70
16777;BME280;8505;49.456;8.164;2022-10-16T03:40:08;99551.22;;;15.91;91.21
16777;BME280;8505;49.456;8.164;2022-10-16T03:42:36;99558.41;;;15.97;90.77
16777;BME280;8505;49.456;8.164;2022-10-16T03:45:04;99555.97;;;15.76;91.39
16777;BME280;8505;49.456;8.164;2022-10-16T03:47:32;99557.00;;;15.82;91.48
16777;BME280;8505;49.456;8.164;2022-10-16T03:50:00;99567.91;;;15.73;90.95
16777;BME280;8505;49.456;8.164;2022-10-16T03:52:29;99558.41;;;15.91;90.88
16777;BME280;8505;49.456;8.164;2022-10-16T03:54:58;99555.09;;;15.95;90.70
16777;BME280;8505;49.456;8.164;2022-10-16T03:57:25;99562.13;;;15.90;90.89
16777;BME280;8505;49.456;8.164;2022-10-16T03:59:54;99567.84;;;15.87;90.91
16777;BME280;8505;49.456;8.164;2022-10-16T04:02:21;99566.88;;;15.74;90.68
16777;BME280;8505;49.456;8.164;2022-10-16T04:04:49;99562.97;;;15.77;90.80
16777;BME280;8505;49.456;8.164;2022-10-16T04:07:16;99565.59;;;15.97;90.75
16777;BME280;8505;49.456;8.164;2022-10-16T04:09:45;99572.38;;;15.93;90.21
16777;BME280;8505;49.456;8.164;2022-10-16T04:12:13;99575.28;;;15.85;90.34
16777;BME280;8505;49.456;8.164;2022-10-16T04:14:41;99581.44;;;15.85;90.75
16777;BME280;8505;49.456;8.164;2022-10-16T04:17:08;99578.34;;;15.82;90.91
16777;BME280;8505;49.456;8.164;2022-10-16T04:19:36;99571.16;;;15.89;90.31
16777;BME280;8505;49.456;8.164;2022-10-16T04:22:03;99559.81;;;15.93;90.31
16777;BME280;8505;49.456;8.164;2022-10-16T04:24:31;99557.78;;;15.95;89.89
16777;BME280;8505;49.456;8.164;2022-10-16T04:27:00;99575.25;;;15.91;89.86
16777;BME280;8505;49.456;8.164;2022-10-16T04:29:28;99573.81;;;15.95;89.97
16777;BME280;8505;49.456;8.164;2022-10-16T04:31:55;99569.34;;;15.76;90.63
16777;BME280;8505;49.456;8.164;2022-10-16T04:34:23;99571.59;;;15.79;91.30
16777;BME280;8505;49.456;8.164;2022-10-16T04:36:50;99571.75;;;15.97;89.69
16777;BME280;8505;49.456;8.164;2022-10-16T04:39:18;99572.34;;;15.99;89.26
16777;BME280;8505;49.456;8.164;2022-10-16T04:41:46;99577.50;;;15.94;89.55
16777;BME280;8505;49.456;8.164;2022-10-16T04:44:15;99580.34;;;15.99;88.64
16777;BME280;8505;49.456;8.164;2022-10-16T04:46:42;99577.53;;;15.81;89.27
16777;BME280;8505;49.456;8.164;2022-10-16T04:49:10;99571.97;;;15.89;89.49
16777;BME280;8505;49.456;8.164;2022-10-16T04:51:38;99566.22;;;15.92;89.13
16777;BME280;8505;49.456;8.164;2022-10-16T04:54:05;99578.13;;;15.90;89.46
16777;BME280;8505;49.456;8.164;2022-10-16T04:56:33;99575.28;;;15.85;89.77
16777;BME280;8505;49.456;8.164;2022-10-16T04:59:06;99568.28;;;15.84;89.68
16777;BME280;8505;49.456;8.164;2022-10-16T05:01:35;99567.47;;;15.76;89.94
16777;BME280;8505;49.456;8.164;2022-10-16T05:04:02;99573.84;;;15.75;90.18
16777;BME280;8505;49.456;8.164;2022-10-16T05:06:30;99553.75;;;15.66;90.24
16777;BME280;8505;49.456;8.164;2022-10-16T05:08:58;99553.53;;;15.68;90.31
16777;BME280;8505;49.456;8.164;2022-10-16T05:11:26;99538.75;;;15.65;91.20
16777;BME280;8505;49.456;8.164;2022-10-16T05:13:53;99538.50;;;15.80;90.19
16777;BME280;8505;49.456;8.164;2022-10-16T05:16:21;99551.66;;;15.82;89.73
16777;BME280;8505;49.456;8.164;2022-10-16T05:18:50;99567.69;;;15.82;89.81
16777;BME280;8505;49.456;8.164;2022-10-16T05:21:29;99577.38;;;15.63;89.79
16777;BME280;8505;49.456;8.164;2022-10-16T05:23:57;99571.63;;;15.72;90.21
16777;BME280;8505;49.456;8.164;2022-10-16T05:26:24;99572.84;;;15.57;90.58
16777;BME280;8505;49.456;8.164;2022-10-16T05:28:52;99574.50;;;15.64;90.64
16777;BME280;8505;49.456;8.164;2022-10-16T05:31:20;99586.41;;;15.49;90.98
16777;BME280;8505;49.456;8.164;2022-10-16T05:33:47;99595.00;;;15.44;91.24
16777;BME280;8505;49.456;8.164;2022-10-16T05:36:21;99584.34;;;15.44;91.89
16777;BME280;8505;49.456;8.164;2022-10-16T05:38:50;99569.78;;;15.53;91.87
16777;BME280;8505;49.456;8.164;2022-10-16T05:41:18;99578.00;;;15.65;90.83
16777;BME280;8505;49.456;8.164;2022-10-16T05:43:48;99582.06;;;15.81;90.61
16777;BME280;8505;49.456;8.164;2022-10-16T05:46:16;99586.34;;;15.95;89.65
16777;BME280;8505;49.456;8.164;2022-10-16T05:48:43;99589.44;;;15.98;89.31
16777;BME280;8505;49.456;8.164;2022-10-16T05:51:13;99604.66;;;15.91;89.77
16777;BME280;8505;49.456;8.164;2022-10-16T05:53:43;99605.19;;;16.06;88.96
16777;BME280;8505;49.456;8.164;2022-10-16T05:56:11;99606.66;;;16.09;88.43
16777;BME280;8505;49.456;8.164;2022-10-16T05:58:39;99600.06;;;16.05;89.26
16777;BME280;8505;49.456;8.164;2022-10-16T06:01:10;99599.28;;;16.04;88.35
16777;BME280;8505;49.456;8.164;2022-10-16T06:03:38;99603.63;;;15.92;88.46
16777;BME280;8505;49.456;8.164;2022-10-16T06:06:10;99606.91;;;15.88;88.75
16777;BME280;8505;49.456;8.164;2022-10-16T06:08:38;99610.81;;;15.85;89.06
16777;BME280;8505;49.456;8.164;2022-10-16T06:11:09;99616.56;;;15.75;88.77
16777;BME280;8505;49.456;8.164;2022-10-16T06:13:37;99618.00;;;15.85;89.21
16777;BME280;8505;49.456;8.164;2022-10-16T06:16:06;99623.34;;;15.85;89.10
16777;BME280;8505;49.456;8.164;2022-10-16T06:18:33;99610.63;;;15.73;89.58
16777;BME280;8505;49.456;8.164;2022-10-16T06:21:07;99620.31;;;15.61;89.07
16777;BME280;8505;49.456;8.164;2022-10-16T06:23:34;99620.28;;;15.68;89.90
16777;BME280;8505;49.456;8.164;2022-10-16T06:26:07;99630.75;;;15.56;90.43
16777;BME280;8505;49.456;8.164;2022-10-16T06:28:36;99631.19;;;15.73;90.30
16777;BME280;8505;49.456;8.164;2022-10-16T06:31:05;99636.47;;;15.86;89.01
16777;BME280;8505;49.456;8.164;2022-10-16T06:33:34;99635.69;;;15.79;89.52
16777;BME280;8505;49.456;8.164;2022-10-16T06:36:02;99649.25;;;15.77;90.23
16777;BME280;8505;49.456;8.164;2022-10-16T06:38:30;99650.25;;;15.83;89.65
16777;BME280;8505;49.456;8.164;2022-10-16T06:40:58;99650.06;;;15.85;89.45
16777;BME280;8505;49.456;8.164;2022-10-16T06:43:28;99646.38;;;15.79;89.64
16777;BME280;8505;49.456;8.164;2022-10-16T06:45:59;99640.59;;;15.89;89.56
16777;BME280;8505;49.456;8.164;2022-10-16T06:48:28;99643.06;;;15.90;89.48
16777;BME280;8505;49.456;8.164;2022-10-16T06:50:57;99636.69;;;15.98;89.47
16777;BME280;8505;49.456;8.164;2022-10-16T06:53:27;99645.31;;;15.87;89.56
16777;BME280;8505;49.456;8.164;2022-10-16T06:56:07;99644.69;;;16.04;89.78
16777;BME280;8505;49.456;8.164;2022-10-16T06:58:36;99653.72;;;16.03;89.71
16777;BME280;8505;49.456;8.164;2022-10-16T07:01:05;99664.38;;;16.16;88.88
16777;BME280;8505;49.456;8.164;2022-10-16T07:03:35;99673.63;;;16.14;88.46
16777;BME280;8505;49.456;8.164;2022-10-16T07:06:04;99680.41;;;16.16;89.01
16777;BME280;8505;49.456;8.164;2022-10-16T07:08:32;99680.41;;;16.16;90.08
16777;BME280;8505;49.456;8.164;2022-10-16T07:11:00;99686.94;;;16.34;88.93
16777;BME280;8505;49.456;8.164;2022-10-16T07:13:28;99686.34;;;16.18;88.38
16777;BME280;8505;49.456;8.164;2022-10-16T07:15:57;99683.19;;;16.48;88.57
16777;BME280;8505;49.456;8.164;2022-10-16T07:18:24;99694.34;;;16.38;88.34
16777;BME280;8505;49.456;8.164;2022-10-16T07:21:03;99706.72;;;16.13;89.51
16777;BME280;8505;49.456;8.164;2022-10-16T07:23:31;99703.56;;;16.36;88.82
16777;BME280;8505;49.456;8.164;2022-10-16T07:25:59;99709.91;;;16.48;88.21
16777;BME280;8505;49.456;8.164;2022-10-16T07:28:27;99710.16;;;16.60;87.42
16777;BME280;8505;49.456;8.164;2022-10-16T07:30:59;99708.28;;;16.60;88.25
16777;BME280;8505;49.456;8.164;2022-10-16T07:33:27;99717.47;;;16.77;87.69
16777;BME280;8505;49.456;8.164;2022-10-16T07:35:55;99720.53;;;16.81;87.56
16777;BME280;8505;49.456;8.164;2022-10-16T07:38:22;99717.91;;;16.68;88.01
16777;BME280;8505;49.456;8.164;2022-10-16T07:40:55;99718.47;;;16.89;87.69
16777;BME280;8505;49.456;8.164;2022-10-16T07:43:23;99716.75;;;17.02;87.18
16777;BME280;8505;49.456;8.164;2022-10-16T07:45:51;99719.16;;;17.10;86.37
16777;BME280;8505;49.456;8.164;2022-10-16T07:48:21;99727.41;;;17.15;87.35
16777;BME280;8505;49.456;8.164;2022-10-16T07:50:49;99733.75;;;17.20;85.53
16777;BME280;8505;49.456;8.164;2022-10-16T07:53:16;99738.56;;;16.98;86.51
16777;BME280;8505;49.456;8.164;2022-10-16T07:55:47;99727.59;;;16.49;87.84
16777;BME280;8505;49.456;8.164;2022-10-16T07:58:15;99736.28;;;16.31;89.75
16777;BME280;8505;49.456;8.164;2022-10-16T08:00:42;99735.59;;;16.69;87.76
16777;BME280;8505;49.456;8.164;2022-10-16T08:03:10;99743.19;;;16.78;88.11
16777;BME280;8505;49.456;8.164;2022-10-16T08:05:39;99746.78;;;17.04;86.46
16777;BME280;8505;49.456;8.164;2022-10-16T08:08:11;99753.41;;;16.94;87.22
16777;BME280;8505;49.456;8.164;2022-10-16T08:10:40;99761.25;;;16.96;87.68
16777;BME280;8505;49.456;8.164;2022-10-16T08:13:08;99776.72;;;17.32;85.21
16777;BME280;8505;49.456;8.164;2022-10-16T08:15:35;99759.88;;;16.61;87.69
16777;BME280;8505;49.456;8.164;2022-10-16T08:18:05;99740.75;;;16.70;87.85
16777;BME280;8505;49.456;8.164;2022-10-16T08:20:33;99749.53;;;16.90;86.58
16777;BME280;8505;49.456;8.164;2022-10-16T08:23:02;99793.41;;;16.76;87.58
16777;BME280;8505;49.456;8.164;2022-10-16T08:25:29;99825.31;;;16.45;88.16
16777;BME280;8505;49.456;8.164;2022-10-16T08:27:57;99823.03;;;16.62;88.22
16777;BME280;8505;49.456;8.164;2022-10-16T08:30:25;99821.22;;;16.29;90.00
16777;BME280;8505;49.456;8.164;2022-10-16T08:32:52;99794.69;;;16.21;90.25
16777;BME280;8505;49.456;8.164;2022-10-16T08:35:20;99812.13;;;16.37;90.87
16777;BME280;8505;49.456;8.164;2022-10-16T08:37:47;99817.72;;;16.29;91.25
16777;BME280;8505;49.456;8.164;2022-10-16T08:40:18;99809.06;;;16.33;90.93
16777;BME280;8505;49.456;8.164;2022-10-16T08:43:01;99800.41;;;16.57;90.35
16777;BME280;8505;49.456;8.164;2022-10-16T08:45:40;99807.53;;;16.96;89.39
16777;BME280;8505;49.456;8.164;2022-10-16T08:48:17;99802.28;;;17.97;85.05
16777;BME280;8505;49.456;8.164;2022-10-16T08:50:47;99802.88;;;19.40;85.02
16777;BME280;8505;49.456;8.164;2022-10-16T08:53:20;99795.53;;;20.18;79.21
16777;BME280;8505;49.456;8.164;2022-10-16T08:55:52;99796.56;;;20.06;78.94
16777;BME280;8505;49.456;8.164;2022-10-16T08:58:22;99809.38;;;20.34;78.50
16777;BME280;8505;49.456;8.164;2022-10-16T09:00:53;99810.31;;;20.74;75.86
16777;BME280;8505;49.456;8.164;2022-10-16T09:03:33;99810.19;;;20.81;74.56
16777;BME280;8505;49.456;8.164;2022-10-16T09:06:22;99807.81;;;20.14;77.03
16777;BME280;8505;49.456;8.164;2022-10-16T09:09:11;99813.00;;;20.63;74.82
16777;BME280;8505;49.456;8.164;2022-10-16T09:11:48;99812.66;;;20.47;75.60
16777;BME280;8505;49.456;8.164;2022-10-16T09:14:35;99824.84;;;20.73;75.18
16777;BME280;8505;49.456;8.164;2022-10-16T09:17:18;99824.56;;;21.21;73.58
16777;BME280;8505;49.456;8.164;2022-10-16T09:19:53;99832.84;;;21.88;71.93
16777;BME280;8505;49.456;8.164;2022-10-16T09:22:27;99825.84;;;22.04;70.49
16777;BME280;8505;49.456;8.164;2022-10-16T09:24:59;99836.25;;;21.84;71.63
16777;BME280;8505;49.456;8.164;2022-10-16T09:27:29;99836.03;;;21.17;74.13
16777;BME280;8505;49.456;8.164;2022-10-16T09:30:11;99838.88;;;20.52;76.13
16777;BME280;8505;49.456;8.164;2022-10-16T09:32:40;99836.69;;;20.31;76.85
16777;BME280;8505;49.456;8.164;2022-10-16T09:35:14;99848.53;;;19.58;79.86
16777;BME280;8505;49.456;8.164;2022-10-16T09:37:43;99850.84;;;20.14;78.32
16777;BME280;8505;49.456;8.164;2022-10-16T09:40:13;99849.59;;;20.29;76.85
16777;BME280;8505;49.456;8.164;2022-10-16T09:42:55;99852.34;;;20.10;76.24
16777;BME280;8505;49.456;8.164;2022-10-16T09:45:24;99844.41;;;20.15;77.40
16777;BME280;8505;49.456;8.164;2022-10-16T09:47:52;99843.31;;;20.58;75.68
16777;BME280;8505;49.456;8.164;2022-10-16T09:50:25;99850.25;;;21.41;73.83
16777;BME280;8505;49.456;8.164;2022-10-16T09:53:05;99851.25;;;21.79;71.25
16777;BME280;8505;49.456;8.164;2022-10-16T09:55:33;99850.41;;;22.52;69.59
16777;BME280;8505;49.456;8.164;2022-10-16T09:58:02;99856.72;;;23.13;67.15
16777;BME280;8505;49.456;8.164;2022-10-16T10:00:29;99841.84;;;23.81;64.97
16777;BME280;8505;49.456;8.164;2022-10-16T10:02:58;99845.16;;;24.47;62.59
16777;BME280;8505;49.456;8.164;2022-10-16T10:05:27;99842.81;;;24.97;60.97
16777;BME280;8505;49.456;8.164;2022-10-16T10:07:58;99837.88;;;25.52;59.51
16777;BME280;8505;49.456;8.164;2022-10-16T10:10:27;99844.78;;;24.75;61.04
16777;BME280;8505;49.456;8.164;2022-10-16T10:12:56;99839.97;;;24.87;60.40
16777;BME280;8505;49.456;8.164;2022-10-16T10:15:32;99843.63;;;25.65;59.08
16777;BME280;8505;49.456;8.164;2022-10-16T10:18:00;99835.31;;;26.53;57.83
16777;BME280;8505;49.456;8.164;2022-10-16T10:20:31;99846.72;;;25.27;58.90
16777;BME280;8505;49.456;8.164;2022-10-16T10:23:01;99845.50;;;24.55;61.72
16777;BME280;8505;49.456;8.164;2022-10-16T10:25:40;99843.38;;;23.99;63.35
16777;BME280;8505;49.456;8.164;2022-10-16T10:28:36;99849.78;;;23.44;66.23
16777;BME280;8505;49.456;8.164;2022-10-16T10:31:13;99849.22;;;23.42;65.67
16777;BME280;8505;49.456;8.164;2022-10-16T10:33:45;99852.44;;;23.61;65.58
16777;BME280;8505;49.456;8.164;2022-10-16T10:36:22;99846.31;;;23.70;65.03
16777;BME280;8505;49.456;8.164;2022-10-16T10:38:55;99845.81;;;24.64;63.17
16777;BME280;8505;49.456;8.164;2022-10-16T10:41:56;99839.06;;;25.14;60.05
16777;BME280;8505;49.456;8.164;2022-10-16T10:44:41;99843.91;;;24.28;61.75
16777;BME280;8505;49.456;8.164;2022-10-16T10:47:22;99850.63;;;23.93;64.66
16777;BME280;8505;49.456;8.164;2022-10-16T10:50:03;99847.28;;;25.29;60.08
16777;BME280;8505;49.456;8.164;2022-10-16T10:52:43;99840.72;;;26.68;56.63
16777;BME280;8505;49.456;8.164;2022-10-16T10:55:21;99845.97;;;27.93;53.70
16777;BME280;8505;49.456;8.164;2022-10-16T11:01:01;99846.91;;;25.72;56.29
16777;BME280;8505;49.456;8.164;2022-10-16T11:03:46;99844.53;;;26.22;54.11
16777;BME280;8505;49.456;8.164;2022-10-16T11:06:26;99837.38;;;27.12;51.49
16777;BME280;8505;49.456;8.164;2022-10-16T11:09:00;99847.19;;;25.81;54.90
16777;BME280;8505;49.456;8.164;2022-10-16T11:11:32;99850.59;;;24.20;60.64
16777;BME280;8505;49.456;8.164;2022-10-16T11:14:05;99859.47;;;24.15;61.90
16777;BME280;8505;49.456;8.164;2022-10-16T11:16:43;99859.69;;;24.09;63.78
16777;BME280;8505;49.456;8.164;2022-10-16T11:19:16;99838.56;;;25.22;57.74
16777;BME280;8505;49.456;8.164;2022-10-16T11:21:54;99834.22;;;25.16;58.35
16777;BME280;8505;49.456;8.164;2022-10-16T11:24:32;99844.59;;;25.39;55.17
16777;BME280;8505;49.456;8.164;2022-10-16T11:27:07;99835.88;;;26.25;53.65
16777;BME280;8505;49.456;8.164;2022-10-16T11:29:44;99847.16;;;25.61;56.17
16777;BME280;8505;49.456;8.164;2022-10-16T11:32:20;99840.53;;;24.84;57.34
16777;BME280;8505;49.456;8.164;2022-10-16T11:34:53;99844.00;;;24.11;60.10
16777;BME280;8505;49.456;8.164;2022-10-16T11:37:26;99846.50;;;23.64;62.84
16777;BME280;8505;49.456;8.164;2022-10-16T11:39:58;99842.63;;;23.55;62.71
16777;BME280;8505;49.456;8.164;2022-10-16T11:42:33;99840.69;;;22.90;64.68
16777;BME280;8505;49.456;8.164;2022-10-16T11:45:15;99836.53;;;23.43;62.32
16777;BME280;8505;49.456;8.164;2022-10-16T11:47:54;99840.66;;;23.72;62.15
16777;BME280;8505;49.456;8.164;2022-10-16T11:50:31;99837.41;;;23.05;63.88
16777;BME280;8505;49.456;8.164;2022-10-16T11:53:04;99841.13;;;23.20;64.19
16777;BME280;8505;49.456;8.164;2022-10-16T11:55:37;99845.59;;;23.31;63.72
16777;BME280;8505;49.456;8.164;2022-10-16T11:58:19;99839.72;;;23.18;64.58
16777;BME280;8505;49.456;8.164;2022-10-16T12:00:57;99842.03;;;23.09;64.26
16777;BME280;8505;49.456;8.164;2022-10-16T12:03:29;99838.84;;;23.12;65.26
16777;BME280;8505;49.456;8.164;2022-10-16T12:06:11;99838.91;;;23.17;64.39
16777;BME280;8505;49.456;8.164;2022-10-16T12:08:42;99822.94;;;22.94;65.20
16777;BME280;8505;49.456;8.164;2022-10-16T12:11:24;99830.06;;;23.00;64.98
16777;BME280;8505;49.456;8.164;2022-10-16T12:14:05;99824.00;;;23.15;65.55
16777;BME280;8505;49.456;8.164;2022-10-16T12:16:37;99823.31;;;23.03;65.37
16777;BME280;8505;49.456;8.164;2022-10-16T12:19:13;99829.59;;;23.52;64.54
16777;BME280;8505;49.456;8.164;2022-10-16T12:21:43;99836.59;;;23.26;64.24
16777;BME280;8505;49.456;8.164;2022-10-16T12:24:22;99830.38;;;23.47;64.06
16777;BME280;8505;49.456;8.164;2022-10-16T12:26:54;99835.09;;;23.57;63.81
16777;BME280;8505;49.456;8.164;2022-10-16T12:29:30;99825.31;;;24.36;62.19
16777;BME280;8505;49.456;8.164;2022-10-16T12:31:59;99820.09;;;24.67;59.73
16777;BME280;8505;49.456;8.164;2022-10-16T12:34:29;99815.56;;;24.35;60.22
16777;BME280;8505;49.456;8.164;2022-10-16T12:37:11;99810.81;;;23.62;63.14
16777;BME280;8505;49.456;8.164;2022-10-16T12:39:40;99812.53;;;24.00;61.06
16777;BME280;8505;49.456;8.164;2022-10-16T12:42:24;99816.97;;;23.35;63.03
16777;BME280;8505;49.456;8.164;2022-10-16T12:44:58;99815.53;;;23.50;63.06
16777;BME280;8505;49.456;8.164;2022-10-16T12:47:36;99816.47;;;23.60;63.32
16777;BME280;8505;49.456;8.164;2022-10-16T12:50:23;99819.78;;;23.94;62.32
16777;BME280;8505;49.456;8.164;2022-10-16T12:52:53;99820.31;;;23.96;61.64
16777;BME280;8505;49.456;8.164;2022-10-16T12:55:22;99825.09;;;23.14;64.79
16777;BME280;8505;49.456;8.164;2022-10-16T12:58:05;99823.41;;;23.51;64.11
16777;BME280;8505;49.456;8.164;2022-10-16T13:00:43;99829.84;;;23.28;64.53
16777;BME280;8505;49.456;8.164;2022-10-16T13:06:14;99829.53;;;23.03;66.67
16777;BME280;8505;49.456;8.164;2022-10-16T13:09:02;99836.50;;;22.99;67.05
16777;BME280;8505;49.456;8.164;2022-10-16T13:11:49;99842.22;;;22.81;68.01
16777;BME280;8505;49.456;8.164;2022-10-16T13:14:40;99845.06;;;22.74;68.43
16777;BME280;8505;49.456;8.164;2022-10-16T13:17:18;99847.84;;;22.79;68.12
16777;BME280;8505;49.456;8.164;2022-10-16T13:19:56;99836.47;;;22.60;68.11
16777;BME280;8505;49.456;8.164;2022-10-16T13:22:31;99833.13;;;22.53;69.13
16777;BME280;8505;49.456;8.164;2022-10-16T13:25:14;99835.34;;;22.73;68.08
16777;BME280;8505;49.456;8.164;2022-10-16T13:27:51;99836.41;;;22.39;69.30
16777;BME280;8505;49.456;8.164;2022-10-16T13:30:23;99835.66;;;22.43;69.33
16777;BME280;8505;49.456;8.164;2022-10-16T13:33:00;99834.44;;;22.17;68.91
16777;BME280;8505;49.456;8.164;2022-10-16T13:35:29;99835.50;;;22.00;69.39
16777;BME280;8505;49.456;8.164;2022-10-16T13:38:05;99828.56;;;21.92;69.69
16777;BME280;8505;49.456;8.164;2022-10-16T13:40:50;99833.38;;;22.02;70.01